sensor_id;sensor_type;location;lat;lon;timestamp;P1;durP1;ratioP1;P2;durP2;ratioP2
65202;SDS011;51788;45.124;38.966;2023-07-20T00:02:02;20.00;;;16.40;;
65202;SDS011;51788;45.124;38.966;2023-07-20T00:04:30;23.27;;;17.15;;
65202;SDS011;51788;45.124;38.966;2023-07-20T00:06:57;19.98;;;16.30;;
65202;SDS011;51788;45.124;38.966;2023-07-20T00:09:23;21.13;;;15.30;;
65202;SDS011;51788;45.124;38.966;2023-07-20T00:11:50;17.75;;;15.63;;
65202;SDS011;51788;45.124;38.966;2023-07-20T00:14:17;22.27;;;16.00;;
65202;SDS011;51788;45.124;38.966;2023-07-20T00:16:44;23.90;;;15.32;;
65202;SDS011;51788;45.124;38.966;2023-07-20T00:19:14;18.70;;;15.88;;
65202;SDS011;51788;45.124;38.966;2023-07-20T00:21:41;35.78;;;17.25;;
65202;SDS011;51788;45.124;38.966;2023-07-20T00:24:08;21.85;;;17.63;;
65202;SDS011;51788;45.124;38.966;2023-07-20T00:26:34;30.90;;;18.77;;
65202;SDS011;51788;45.124;38.966;2023-07-20T00:29:00;23.88;;;17.23;;
65202;SDS011;51788;45.124;38.966;2023-07-20T00:31:26;22.33;;;17.58;;
65202;SDS011;51788;45.124;38.966;2023-07-20T00:33:52;19.55;;;17.13;;
65202;SDS011;51788;45.124;38.966;2023-07-20T00:36:18;21.30;;;15.40;;
65202;SDS011;51788;45.124;38.966;2023-07-20T00:38:44;27.65;;;16.67;;
65202;SDS011;51788;45.124;38.966;2023-07-20T00:41:10;23.02;;;16.38;;
65202;SDS011;51788;45.124;38.966;2023-07-20T00:43:36;19.00;;;15.68;;
65202;SDS011;51788;45.124;38.966;2023-07-20T00:46:02;21.45;;;14.95;;
65202;SDS011;51788;45.124;38.966;2023-07-20T00:48:29;20.42;;;16.02;;
65202;SDS011;51788;45.124;38.966;2023-07-20T00:50:56;23.23;;;15.63;;
65202;SDS011;51788;45.124;38.966;2023-07-20T00:53:23;24.00;;;15.40;;
65202;SDS011;51788;45.124;38.966;2023-07-20T00:55:49;25.23;;;15.88;;
65202;SDS011;51788;45.124;38.966;2023-07-20T00:58:15;25.77;;;15.65;;
65202;SDS011;51788;45.124;38.966;2023-07-20T01:00:41;19.30;;;14.52;;
65202;SDS011;51788;45.124;38.966;2023-07-20T01:03:10;29.58;;;15.40;;
65202;SDS011;51788;45.124;38.966;2023-07-20T01:05:46;22.65;;;15.13;;
65202;SDS011;51788;45.124;38.966;2023-07-20T01:10:59;16.40;;;14.75;;
65202;SDS011;51788;45.124;38.966;2023-07-20T01:13:35;24.55;;;15.68;;
65202;SDS011;51788;45.124;38.966;2023-07-20T01:16:02;18.55;;;15.23;;
65202;SDS011;51788;45.124;38.966;2023-07-20T01:18:28;18.60;;;14.77;;
65202;SDS011;51788;45.124;38.966;2023-07-20T01:20:56;22.77;;;15.07;;
65202;SDS011;51788;45.124;38.966;2023-07-20T01:31:24;23.30;;;15.38;;
65202;SDS011;51788;45.124;38.966;2023-07-20T01:33:55;19.13;;;14.27;;
65202;SDS011;51788;45.124;38.966;2023-07-20T01:36:23;17.95;;;15.05;;
65202;SDS011;51788;45.124;38.966;2023-07-20T01:38:52;22.17;;;14.88;;
65202;SDS011;51788;45.124;38.966;2023-07-20T01:41:18;17.38;;;14.88;;
65202;SDS011;51788;45.124;38.966;2023-07-20T01:43:45;20.08;;;16.58;;
65202;SDS011;51788;45.124;38.966;2023-07-20T01:46:11;20.42;;;14.68;;
65202;SDS011;51788;45.124;38.966;2023-07-20T01:48:37;26.92;;;15.32;;
65202;SDS011;51788;45.124;38.966;2023-07-20T01:51:03;34.88;;;16.40;;
65202;SDS011;51788;45.124;38.966;2023-07-20T01:53:29;42.53;;;18.00;;
65202;SDS011;51788;45.124;38.966;2023-07-20T01:55:56;38.35;;;15.57;;
65202;SDS011;51788;45.124;38.966;2023-07-20T01:58:22;58.97;;;15.30;;
65202;SDS011;51788;45.124;38.966;2023-07-20T02:00:49;29.80;;;15.00;;
65202;SDS011;51788;45.124;38.966;2023-07-20T02:03:15;36.25;;;23.70;;
65202;SDS011;51788;45.124;38.966;2023-07-20T02:05:45;271.40;;;101.00;;
65202;SDS011;51788;45.124;38.966;2023-07-20T02:08:11;488.00;;;167.50;;
65202;SDS011;51788;45.124;38.966;2023-07-20T02:10:37;639.45;;;220.10;;
65202;SDS011;51788;45.124;38.966;2023-07-20T02:13:03;583.50;;;196.77;;
65202;SDS011;51788;45.124;38.966;2023-07-20T02:15:29;564.55;;;194.20;;
65202;SDS011;51788;45.124;38.966;2023-07-20T02:17:55;271.20;;;101.05;;
65202;SDS011;51788;45.124;38.966;2023-07-20T02:20:21;17.92;;;15.20;;
65202;SDS011;51788;45.124;38.966;2023-07-20T02:22:47;20.48;;;15.13;;
65202;SDS011;51788;45.124;38.966;2023-07-20T02:25:15;21.30;;;15.13;;
65202;SDS011;51788;45.124;38.966;2023-07-20T02:27:41;18.42;;;15.02;;
65202;SDS011;51788;45.124;38.966;2023-07-20T02:30:07;56.65;;;19.10;;
65202;SDS011;51788;45.124;38.966;2023-07-20T02:32:34;22.50;;;16.02;;
65202;SDS011;51788;45.124;38.966;2023-07-20T02:35:02;18.42;;;14.60;;
65202;SDS011;51788;45.124;38.966;2023-07-20T02:37:29;17.23;;;13.95;;
65202;SDS011;51788;45.124;38.966;2023-07-20T02:39:54;20.33;;;15.77;;
65202;SDS011;51788;45.124;38.966;2023-07-20T02:42:20;23.70;;;14.52;;
65202;SDS011;51788;45.124;38.966;2023-07-20T02:44:48;17.35;;;14.90;;
65202;SDS011;51788;45.124;38.966;2023-07-20T02:47:14;16.30;;;13.70;;
65202;SDS011;51788;45.124;38.966;2023-07-20T02:49:40;20.60;;;14.23;;
65202;SDS011;51788;45.124;38.966;2023-07-20T02:52:06;18.20;;;14.60;;
65202;SDS011;51788;45.124;38.966;2023-07-20T02:54:32;15.77;;;14.13;;
65202;SDS011;51788;45.124;38.966;2023-07-20T02:56:58;18.45;;;13.88;;
65202;SDS011;51788;45.124;38.966;2023-07-20T02:59:24;19.02;;;14.77;;
65202;SDS011;51788;45.124;38.966;2023-07-20T03:01:50;17.08;;;13.25;;
65202;SDS011;51788;45.124;38.966;2023-07-20T03:04:16;17.45;;;13.02;;
65202;SDS011;51788;45.124;38.966;2023-07-20T03:06:41;16.77;;;13.77;;
65202;SDS011;51788;45.124;38.966;2023-07-20T03:09:08;19.25;;;14.05;;
65202;SDS011;51788;45.124;38.966;2023-07-20T03:11:34;17.23;;;14.13;;
65202;SDS011;51788;45.124;38.966;2023-07-20T03:14:00;17.60;;;14.07;;
65202;SDS011;51788;45.124;38.966;2023-07-20T03:16:26;18.38;;;15.15;;
65202;SDS011;51788;45.124;38.966;2023-07-20T03:18:53;19.58;;;14.88;;
65202;SDS011;51788;45.124;38.966;2023-07-20T03:21:19;18.42;;;15.23;;
65202;SDS011;51788;45.124;38.966;2023-07-20T03:23:45;21.23;;;16.67;;
65202;SDS011;51788;45.124;38.966;2023-07-20T03:26:11;23.40;;;17.05;;
65202;SDS011;51788;45.124;38.966;2023-07-20T03:28:37;23.75;;;16.92;;
65202;SDS011;51788;45.124;38.966;2023-07-20T03:31:04;21.52;;;16.90;;
65202;SDS011;51788;45.124;38.966;2023-07-20T03:33:34;21.38;;;16.65;;
65202;SDS011;51788;45.124;38.966;2023-07-20T03:36:00;25.52;;;18.02;;
65202;SDS011;51788;45.124;38.966;2023-07-20T03:38:26;32.33;;;18.63;;
65202;SDS011;51788;45.124;38.966;2023-07-20T03:40:54;22.70;;;17.52;;
65202;SDS011;51788;45.124;38.966;2023-07-20T03:43:21;26.33;;;18.73;;
65202;SDS011;51788;45.124;38.966;2023-07-20T03:45:48;23.52;;;16.55;;
65202;SDS011;51788;45.124;38.966;2023-07-20T03:48:15;18.52;;;14.65;;
65202;SDS011;51788;45.124;38.966;2023-07-20T03:50:44;21.00;;;12.88;;
65202;SDS011;51788;45.124;38.966;2023-07-20T03:53:11;638.97;;;214.77;;
65202;SDS011;51788;45.124;38.966;2023-07-20T03:55:37;597.05;;;198.43;;
65202;SDS011;51788;45.124;38.966;2023-07-20T03:58:06;485.08;;;162.52;;
65202;SDS011;51788;45.124;38.966;2023-07-20T04:00:32;613.20;;;202.15;;
65202;SDS011;51788;45.124;38.966;2023-07-20T04:02:59;616.13;;;199.27;;
65202;SDS011;51788;45.124;38.966;2023-07-20T04:05:25;677.97;;;222.02;;
65202;SDS011;51788;45.124;38.966;2023-07-20T04:07:51;653.85;;;214.20;;
65202;SDS011;51788;45.124;38.966;2023-07-20T04:10:18;694.20;;;227.80;;
65202;SDS011;51788;45.124;38.966;2023-07-20T04:12:44;505.05;;;167.15;;
65202;SDS011;51788;45.124;38.966;2023-07-20T04:15:13;666.20;;;215.80;;
65202;SDS011;51788;45.124;38.966;2023-07-20T04:17:39;658.03;;;213.57;;
65202;SDS011;51788;45.124;38.966;2023-07-20T04:20:08;608.13;;;193.32;;
65202;SDS011;51788;45.124;38.966;2023-07-20T04:22:35;709.67;;;230.05;;
65202;SDS011;51788;45.124;38.966;2023-07-20T04:25:02;668.85;;;217.13;;
65202;SDS011;51788;45.124;38.966;2023-07-20T04:27:29;751.25;;;243.73;;
65202;SDS011;51788;45.124;38.966;2023-07-20T04:29:55;766.22;;;248.38;;
65202;SDS011;51788;45.124;38.966;2023-07-20T04:32:22;744.10;;;240.88;;
65202;SDS011;51788;45.124;38.966;2023-07-20T04:34:48;681.90;;;216.88;;
65202;SDS011;51788;45.124;38.966;2023-07-20T04:37:14;734.95;;;239.15;;
65202;SDS011;51788;45.124;38.966;2023-07-20T04:39:40;720.58;;;230.68;;
65202;SDS011;51788;45.124;38.966;2023-07-20T04:42:09;809.22;;;259.65;;
65202;SDS011;51788;45.124;38.966;2023-07-20T04:44:35;5.32;;;3.78;;
65202;SDS011;51788;45.124;38.966;2023-07-20T04:47:02;6.00;;;4.05;;
65202;SDS011;51788;45.124;38.966;2023-07-20T04:49:31;6.50;;;4.65;;
65202;SDS011;51788;45.124;38.966;2023-07-20T04:51:57;11.95;;;4.35;;
65202;SDS011;51788;45.124;38.966;2023-07-20T04:54:24;9.32;;;4.72;;
65202;SDS011;51788;45.124;38.966;2023-07-20T04:56:53;5.03;;;4.35;;
65202;SDS011;51788;45.124;38.966;2023-07-20T04:59:20;3.50;;;3.30;;
65202;SDS011;51788;45.124;38.966;2023-07-20T05:01:46;3.35;;;2.88;;
65202;SDS011;51788;45.124;38.966;2023-07-20T05:04:13;4.30;;;3.47;;
65202;SDS011;51788;45.124;38.966;2023-07-20T05:06:39;4.15;;;3.83;;
65202;SDS011;51788;45.124;38.966;2023-07-20T05:09:05;3.42;;;3.10;;
65202;SDS011;51788;45.124;38.966;2023-07-20T05:11:32;5.18;;;3.30;;
65202;SDS011;51788;45.124;38.966;2023-07-20T05:13:59;11.73;;;4.25;;
65202;SDS011;51788;45.124;38.966;2023-07-20T05:16:25;4.53;;;3.35;;
65202;SDS011;51788;45.124;38.966;2023-07-20T05:18:53;9.32;;;3.10;;
65202;SDS011;51788;45.124;38.966;2023-07-20T05:21:19;5.10;;;3.50;;
65202;SDS011;51788;45.124;38.966;2023-07-20T05:23:45;6.05;;;4.13;;
65202;SDS011;51788;45.124;38.966;2023-07-20T05:26:13;7.78;;;3.28;;
65202;SDS011;51788;45.124;38.966;2023-07-20T05:28:39;4.47;;;3.08;;
65202;SDS011;51788;45.124;38.966;2023-07-20T05:31:05;5.47;;;2.90;;
65202;SDS011;51788;45.124;38.966;2023-07-20T05:33:31;3.55;;;2.90;;
65202;SDS011;51788;45.124;38.966;2023-07-20T05:35:57;4.05;;;2.72;;
65202;SDS011;51788;45.124;38.966;2023-07-20T05:38:23;9.48;;;3.17;;
65202;SDS011;51788;45.124;38.966;2023-07-20T05:40:49;5.72;;;3.00;;
65202;SDS011;51788;45.124;38.966;2023-07-20T05:43:15;3.20;;;2.95;;
65202;SDS011;51788;45.124;38.966;2023-07-20T05:45:41;9.00;;;3.38;;
65202;SDS011;51788;45.124;38.966;2023-07-20T05:48:08;3.88;;;2.97;;
65202;SDS011;51788;45.124;38.966;2023-07-20T05:50:47;3.90;;;3.58;;
65202;SDS011;51788;45.124;38.966;2023-07-20T05:53:13;5.80;;;3.45;;
65202;SDS011;51788;45.124;38.966;2023-07-20T05:55:39;9.13;;;3.42;;
65202;SDS011;51788;45.124;38.966;2023-07-20T05:58:05;10.38;;;3.45;;
65202;SDS011;51788;45.124;38.966;2023-07-20T06:00:31;5.60;;;3.40;;
65202;SDS011;51788;45.124;38.966;2023-07-20T06:02:57;10.48;;;3.63;;
65202;SDS011;51788;45.124;38.966;2023-07-20T06:05:23;5.93;;;3.50;;
65202;SDS011;51788;45.124;38.966;2023-07-20T06:07:50;3.95;;;2.88;;
65202;SDS011;51788;45.124;38.966;2023-07-20T06:10:16;4.93;;;3.10;;
65202;SDS011;51788;45.124;38.966;2023-07-20T06:12:42;3.70;;;3.10;;
65202;SDS011;51788;45.124;38.966;2023-07-20T06:15:24;5.53;;;3.10;;
65202;SDS011;51788;45.124;38.966;2023-07-20T06:18:03;6.03;;;2.70;;
65202;SDS011;51788;45.124;38.966;2023-07-20T06:20:29;2.63;;;2.42;;
65202;SDS011;51788;45.124;38.966;2023-07-20T06:22:56;6.70;;;3.08;;
65202;SDS011;51788;45.124;38.966;2023-07-20T06:25:21;4.15;;;2.53;;
65202;SDS011;51788;45.124;38.966;2023-07-20T06:27:48;4.80;;;2.65;;
65202;SDS011;51788;45.124;38.966;2023-07-20T06:30:16;3.88;;;2.38;;
65202;SDS011;51788;45.124;38.966;2023-07-20T06:32:43;2.50;;;2.35;;
65202;SDS011;51788;45.124;38.966;2023-07-20T06:35:09;4.30;;;2.70;;
65202;SDS011;51788;45.124;38.966;2023-07-20T06:37:35;6.28;;;2.72;;
65202;SDS011;51788;45.124;38.966;2023-07-20T06:40:04;5.32;;;2.60;;
65202;SDS011;51788;45.124;38.966;2023-07-20T06:42:30;5.68;;;2.22;;
65202;SDS011;51788;45.124;38.966;2023-07-20T06:44:57;2.63;;;2.42;;
65202;SDS011;51788;45.124;38.966;2023-07-20T06:47:23;6.70;;;2.30;;
65202;SDS011;51788;45.124;38.966;2023-07-20T06:49:49;4.47;;;2.47;;
65202;SDS011;51788;45.124;38.966;2023-07-20T06:52:15;10.63;;;3.28;;
65202;SDS011;51788;45.124;38.966;2023-07-20T06:54:41;6.20;;;2.75;;
65202;SDS011;51788;45.124;38.966;2023-07-20T06:57:07;9.85;;;3.55;;
65202;SDS011;51788;45.124;38.966;2023-07-20T06:59:32;6.20;;;3.22;;
65202;SDS011;51788;45.124;38.966;2023-07-20T07:01:58;4.15;;;2.67;;
65202;SDS011;51788;45.124;38.966;2023-07-20T07:04:25;8.30;;;2.47;;
65202;SDS011;51788;45.124;38.966;2023-07-20T07:06:53;5.85;;;3.00;;
65202;SDS011;51788;45.124;38.966;2023-07-20T07:09:19;3.10;;;2.80;;
65202;SDS011;51788;45.124;38.966;2023-07-20T07:11:46;4.07;;;2.70;;
65202;SDS011;51788;45.124;38.966;2023-07-20T07:14:12;2.53;;;2.33;;
65202;SDS011;51788;45.124;38.966;2023-07-20T07:16:38;3.35;;;3.08;;
65202;SDS011;51788;45.124;38.966;2023-07-20T07:19:05;8.32;;;3.03;;
65202;SDS011;51788;45.124;38.966;2023-07-20T07:21:31;9.32;;;3.40;;
65202;SDS011;51788;45.124;38.966;2023-07-20T07:23:57;7.97;;;2.72;;
65202;SDS011;51788;45.124;38.966;2023-07-20T07:26:25;7.90;;;3.65;;
65202;SDS011;51788;45.124;38.966;2023-07-20T07:28:51;6.00;;;3.10;;
65202;SDS011;51788;45.124;38.966;2023-07-20T07:31:17;5.43;;;3.17;;
65202;SDS011;51788;45.124;38.966;2023-07-20T07:33:43;7.43;;;3.88;;
65202;SDS011;51788;45.124;38.966;2023-07-20T07:36:09;8.82;;;3.75;;
65202;SDS011;51788;45.124;38.966;2023-07-20T07:38:35;8.73;;;2.95;;
65202;SDS011;51788;45.124;38.966;2023-07-20T07:41:01;4.15;;;3.00;;
65202;SDS011;51788;45.124;38.966;2023-07-20T07:43:27;4.70;;;2.33;;
65202;SDS011;51788;45.124;38.966;2023-07-20T07:45:53;4.15;;;2.55;;
65202;SDS011;51788;45.124;38.966;2023-07-20T07:48:21;3.80;;;2.88;;
65202;SDS011;51788;45.124;38.966;2023-07-20T07:50:47;11.13;;;2.67;;
65202;SDS011;51788;45.124;38.966;2023-07-20T07:53:13;3.15;;;2.40;;
65202;SDS011;51788;45.124;38.966;2023-07-20T07:55:39;3.05;;;2.30;;
65202;SDS011;51788;45.124;38.966;2023-07-20T07:58:06;2.60;;;1.90;;
65202;SDS011;51788;45.124;38.966;2023-07-20T08:00:32;5.95;;;2.60;;
65202;SDS011;51788;45.124;38.966;2023-07-20T08:02:58;3.00;;;2.30;;
65202;SDS011;51788;45.124;38.966;2023-07-20T08:05:24;4.72;;;2.20;;
65202;SDS011;51788;45.124;38.966;2023-07-20T08:07:51;9.15;;;2.17;;
65202;SDS011;51788;45.124;38.966;2023-07-20T08:10:17;3.00;;;2.28;;
65202;SDS011;51788;45.124;38.966;2023-07-20T08:12:43;5.07;;;4.53;;
65202;SDS011;51788;45.124;38.966;2023-07-20T08:15:10;6.00;;;2.78;;
65202;SDS011;51788;45.124;38.966;2023-07-20T08:17:37;5.80;;;2.40;;
65202;SDS011;51788;45.124;38.966;2023-07-20T08:20:04;3.00;;;2.45;;
65202;SDS011;51788;45.124;38.966;2023-07-20T08:22:31;6.35;;;3.65;;
65202;SDS011;51788;45.124;38.966;2023-07-20T08:24:57;3.50;;;2.30;;
65202;SDS011;51788;45.124;38.966;2023-07-20T08:27:23;14.13;;;2.75;;
65202;SDS011;51788;45.124;38.966;2023-07-20T08:29:50;2.80;;;2.60;;
65202;SDS011;51788;45.124;38.966;2023-07-20T08:32:16;2.58;;;2.38;;
65202;SDS011;51788;45.124;38.966;2023-07-20T08:34:42;8.00;;;2.30;;
65202;SDS011;51788;45.124;38.966;2023-07-20T08:37:07;2.58;;;2.38;;
65202;SDS011;51788;45.124;38.966;2023-07-20T08:39:36;2.40;;;2.30;;
65202;SDS011;51788;45.124;38.966;2023-07-20T08:42:02;2.60;;;2.40;;
65202;SDS011;51788;45.124;38.966;2023-07-20T08:44:34;9.73;;;3.10;;
65202;SDS011;51788;45.124;38.966;2023-07-20T08:47:02;2.25;;;2.15;;
65202;SDS011;51788;45.124;38.966;2023-07-20T08:49:29;9.18;;;2.45;;
65202;SDS011;51788;45.124;38.966;2023-07-20T08:51:57;6.50;;;2.58;;
65202;SDS011;51788;45.124;38.966;2023-07-20T08:54:25;6.95;;;2.40;;
65202;SDS011;51788;45.124;38.966;2023-07-20T08:56:55;3.40;;;2.50;;
65202;SDS011;51788;45.124;38.966;2023-07-20T08:59:22;2.58;;;2.38;;
65202;SDS011;51788;45.124;38.966;2023-07-20T09:01:50;2.20;;;2.03;;
65202;SDS011;51788;45.124;38.966;2023-07-20T09:04:19;3.35;;;2.10;;
65202;SDS011;51788;45.124;38.966;2023-07-20T09:06:45;11.90;;;2.45;;
65202;SDS011;51788;45.124;38.966;2023-07-20T09:09:13;2.42;;;2.22;;
65202;SDS011;51788;45.124;38.966;2023-07-20T09:11:40;6.53;;;2.35;;
65202;SDS011;51788;45.124;38.966;2023-07-20T09:14:06;2.47;;;2.28;;
65202;SDS011;51788;45.124;38.966;2023-07-20T09:16:49;4.60;;;1.92;;
65202;SDS011;51788;45.124;38.966;2023-07-20T09:19:17;2.42;;;2.22;;
65202;SDS011;51788;45.124;38.966;2023-07-20T09:21:47;8.80;;;2.75;;
65202;SDS011;51788;45.124;38.966;2023-07-20T09:24:14;4.45;;;2.10;;
65202;SDS011;51788;45.124;38.966;2023-07-20T09:26:41;4.10;;;2.25;;
65202;SDS011;51788;45.124;38.966;2023-07-20T09:29:10;6.57;;;2.40;;
65202;SDS011;51788;45.124;38.966;2023-07-20T09:31:37;9.65;;;2.42;;
65202;SDS011;51788;45.124;38.966;2023-07-20T09:34:04;5.35;;;2.00;;
65202;SDS011;51788;45.124;38.966;2023-07-20T09:36:33;10.88;;;2.45;;
65202;SDS011;51788;45.124;38.966;2023-07-20T09:39:00;4.60;;;1.95;;
65202;SDS011;51788;45.124;38.966;2023-07-20T09:41:29;2.28;;;2.08;;
65202;SDS011;51788;45.124;38.966;2023-07-20T09:43:55;3.58;;;2.65;;
65202;SDS011;51788;45.124;38.966;2023-07-20T09:46:21;3.38;;;2.47;;
65202;SDS011;51788;45.124;38.966;2023-07-20T09:48:52;3.17;;;2.08;;
65202;SDS011;51788;45.124;38.966;2023-07-20T09:51:22;1.92;;;1.83;;
65202;SDS011;51788;45.124;38.966;2023-07-20T09:53:51;2.90;;;2.22;;
65202;SDS011;51788;45.124;38.966;2023-07-20T09:56:21;2.22;;;2.03;;
65202;SDS011;51788;45.124;38.966;2023-07-20T09:58:49;12.65;;;2.53;;
65202;SDS011;51788;45.124;38.966;2023-07-20T10:01:16;2.40;;;2.30;;
65202;SDS011;51788;45.124;38.966;2023-07-20T10:03:46;2.22;;;2.08;;
65202;SDS011;51788;45.124;38.966;2023-07-20T10:06:15;6.25;;;2.17;;
65202;SDS011;51788;45.124;38.966;2023-07-20T10:08:45;7.80;;;2.72;;
65202;SDS011;51788;45.124;38.966;2023-07-20T10:11:15;3.83;;;2.05;;
65202;SDS011;51788;45.124;38.966;2023-07-20T10:13:43;5.20;;;2.45;;
65202;SDS011;51788;45.124;38.966;2023-07-20T10:16:11;3.33;;;2.60;;
65202;SDS011;51788;45.124;38.966;2023-07-20T10:21:31;2.10;;;2.00;;
65202;SDS011;51788;45.124;38.966;2023-07-20T10:24:01;2.88;;;2.35;;
65202;SDS011;51788;45.124;38.966;2023-07-20T10:26:28;5.80;;;2.20;;
65202;SDS011;51788;45.124;38.966;2023-07-20T10:28:54;2.13;;;2.00;;
65202;SDS011;51788;45.124;38.966;2023-07-20T10:31:22;3.92;;;3.20;;
65202;SDS011;51788;45.124;38.966;2023-07-20T10:33:49;5.15;;;2.65;;
65202;SDS011;51788;45.124;38.966;2023-07-20T10:36:16;4.57;;;2.00;;
65202;SDS011;51788;45.124;38.966;2023-07-20T10:38:52;3.05;;;2.30;;
65202;SDS011;51788;45.124;38.966;2023-07-20T10:41:20;5.40;;;2.30;;
65202;SDS011;51788;45.124;38.966;2023-07-20T10:43:47;9.50;;;4.70;;
65202;SDS011;51788;45.124;38.966;2023-07-20T10:46:14;7.93;;;3.53;;
65202;SDS011;51788;45.124;38.966;2023-07-20T10:48:59;4.72;;;2.80;;
65202;SDS011;51788;45.124;38.966;2023-07-20T10:51:27;3.47;;;2.05;;
65202;SDS011;51788;45.124;38.966;2023-07-20T10:53:56;7.78;;;2.63;;
65202;SDS011;51788;45.124;38.966;2023-07-20T10:56:27;3.25;;;2.42;;
65202;SDS011;51788;45.124;38.966;2023-07-20T10:58:59;6.75;;;2.38;;
65202;SDS011;51788;45.124;38.966;2023-07-20T11:01:29;5.70;;;2.75;;
65202;SDS011;51788;45.124;38.966;2023-07-20T11:03:57;5.30;;;2.53;;
65202;SDS011;51788;45.124;38.966;2023-07-20T11:11:36;3.60;;;2.10;;
65202;SDS011;51788;45.124;38.966;2023-07-20T11:14:07;3.15;;;2.10;;
65202;SDS011;51788;45.124;38.966;2023-07-20T11:16:47;3.00;;;2.20;;
65202;SDS011;51788;45.124;38.966;2023-07-20T11:19:21;10.13;;;2.80;;
65202;SDS011;51788;45.124;38.966;2023-07-20T11:21:52;5.80;;;2.53;;
65202;SDS011;51788;45.124;38.966;2023-07-20T11:24:19;9.88;;;2.40;;
65202;SDS011;51788;45.124;38.966;2023-07-20T11:26:46;5.13;;;1.80;;
65202;SDS011;51788;45.124;38.966;2023-07-20T11:29:18;4.32;;;2.47;;
65202;SDS011;51788;45.124;38.966;2023-07-20T11:31:46;6.82;;;2.35;;
65202;SDS011;51788;45.124;38.966;2023-07-20T11:34:16;5.20;;;2.40;;
65202;SDS011;51788;45.124;38.966;2023-07-20T11:36:52;2.47;;;2.20;;
65202;SDS011;51788;45.124;38.966;2023-07-20T11:39:21;3.42;;;2.13;;
65202;SDS011;51788;45.124;38.966;2023-07-20T11:41:57;23.67;;;3.72;;
65202;SDS011;51788;45.124;38.966;2023-07-20T11:44:24;5.07;;;3.45;;
65202;SDS011;51788;45.124;38.966;2023-07-20T11:47:03;15.27;;;2.40;;
65202;SDS011;51788;45.124;38.966;2023-07-20T11:49:51;12.73;;;2.10;;
65202;SDS011;51788;45.124;38.966;2023-07-20T11:52:19;1.77;;;1.67;;
65202;SDS011;51788;45.124;38.966;2023-07-20T11:54:46;1.75;;;1.65;;
65202;SDS011;51788;45.124;38.966;2023-07-20T11:57:19;2.05;;;1.80;;
65202;SDS011;51788;45.124;38.966;2023-07-20T12:02:26;7.28;;;2.42;;
65202;SDS011;51788;45.124;38.966;2023-07-20T12:04:56;4.07;;;2.10;;
65202;SDS011;51788;45.124;38.966;2023-07-20T12:07:22;1.90;;;1.80;;
65202;SDS011;51788;45.124;38.966;2023-07-20T12:10:06;9.90;;;1.90;;
65202;SDS011;51788;45.124;38.966;2023-07-20T12:12:40;4.07;;;2.20;;
65202;SDS011;51788;45.124;38.966;2023-07-20T12:15:14;2.15;;;2.05;;
65202;SDS011;51788;45.124;38.966;2023-07-20T12:17:43;2.03;;;1.85;;
65202;SDS011;51788;45.124;38.966;2023-07-20T12:20:10;2.17;;;2.00;;
65202;SDS011;51788;45.124;38.966;2023-07-20T12:22:41;3.13;;;1.80;;
65202;SDS011;51788;45.124;38.966;2023-07-20T12:25:09;2.85;;;2.10;;
65202;SDS011;51788;45.124;38.966;2023-07-20T12:27:36;2.95;;;2.03;;
65202;SDS011;51788;45.124;38.966;2023-07-20T12:30:04;1.83;;;1.73;;
65202;SDS011;51788;45.124;38.966;2023-07-20T12:32:31;2.15;;;2.00;;
65202;SDS011;51788;45.124;38.966;2023-07-20T12:34:57;2.13;;;1.90;;
65202;SDS011;51788;45.124;38.966;2023-07-20T12:37:23;2.20;;;2.00;;
65202;SDS011;51788;45.124;38.966;2023-07-20T12:39:49;2.78;;;1.63;;
65202;SDS011;51788;45.124;38.966;2023-07-20T12:42:15;2.47;;;1.90;;
65202;SDS011;51788;45.124;38.966;2023-07-20T12:44:41;4.60;;;2.03;;
65202;SDS011;51788;45.124;38.966;2023-07-20T12:47:07;4.63;;;1.63;;
65202;SDS011;51788;45.124;38.966;2023-07-20T12:49:33;6.88;;;2.05;;
65202;SDS011;51788;45.124;38.966;2023-07-20T12:51:59;4.93;;;2.10;;
65202;SDS011;51788;45.124;38.966;2023-07-20T12:54:25;3.83;;;1.80;;
65202;SDS011;51788;45.124;38.966;2023-07-20T12:56:51;3.10;;;2.03;;
65202;SDS011;51788;45.124;38.966;2023-07-20T12:59:17;2.92;;;1.55;;
65202;SDS011;51788;45.124;38.966;2023-07-20T13:01:43;3.00;;;1.52;;
65202;SDS011;51788;45.124;38.966;2023-07-20T13:04:10;1.98;;;1.70;;
65202;SDS011;51788;45.124;38.966;2023-07-20T13:06:36;2.15;;;1.95;;
65202;SDS011;51788;45.124;38.966;2023-07-20T13:09:02;3.45;;;2.08;;
65202;SDS011;51788;45.124;38.966;2023-07-20T13:11:28;2.95;;;1.92;;
65202;SDS011;51788;45.124;38.966;2023-07-20T13:13:56;1.92;;;1.83;;
65202;SDS011;51788;45.124;38.966;2023-07-20T13:16:22;2.75;;;2.10;;
65202;SDS011;51788;45.124;38.966;2023-07-20T13:18:48;2.15;;;2.05;;
65202;SDS011;51788;45.124;38.966;2023-07-20T13:21:14;2.60;;;1.92;;
65202;SDS011;51788;45.124;38.966;2023-07-20T13:23:40;3.95;;;2.25;;
65202;SDS011;51788;45.124;38.966;2023-07-20T13:26:06;3.95;;;2.50;;
65202;SDS011;51788;45.124;38.966;2023-07-20T13:28:33;2.25;;;2.05;;
65202;SDS011;51788;45.124;38.966;2023-07-20T13:30:59;2.10;;;2.00;;
65202;SDS011;51788;45.124;38.966;2023-07-20T13:33:25;2.47;;;2.05;;
65202;SDS011;51788;45.124;38.966;2023-07-20T13:35:51;3.15;;;2.08;;
65202;SDS011;51788;45.124;38.966;2023-07-20T13:38:17;9.85;;;1.90;;
65202;SDS011;51788;45.124;38.966;2023-07-20T13:40:43;6.10;;;2.30;;
65202;SDS011;51788;45.124;38.966;2023-07-20T13:43:09;3.05;;;2.10;;
65202;SDS011;51788;45.124;38.966;2023-07-20T13:45:36;3.03;;;2.13;;
65202;SDS011;51788;45.124;38.966;2023-07-20T13:48:02;8.43;;;2.50;;
65202;SDS011;51788;45.124;38.966;2023-07-20T13:50:28;3.60;;;1.77;;
65202;SDS011;51788;45.124;38.966;2023-07-20T13:52:54;5.72;;;2.65;;
65202;SDS011;51788;45.124;38.966;2023-07-20T13:55:20;5.18;;;2.30;;
65202;SDS011;51788;45.124;38.966;2023-07-20T13:57:46;14.30;;;2.10;;
65202;SDS011;51788;45.124;38.966;2023-07-20T14:00:13;2.55;;;2.10;;
65202;SDS011;51788;45.124;38.966;2023-07-20T14:02:40;2.47;;;2.28;;
65202;SDS011;51788;45.124;38.966;2023-07-20T14:05:06;2.88;;;2.33;;
65202;SDS011;51788;45.124;38.966;2023-07-20T14:07:32;2.28;;;2.15;;
65202;SDS011;51788;45.124;38.966;2023-07-20T14:09:58;7.03;;;2.75;;
65202;SDS011;51788;45.124;38.966;2023-07-20T14:12:24;5.45;;;2.25;;
65202;SDS011;51788;45.124;38.966;2023-07-20T14:14:50;6.15;;;2.20;;
65202;SDS011;51788;45.124;38.966;2023-07-20T14:17:16;2.22;;;1.90;;
65202;SDS011;51788;45.124;38.966;2023-07-20T14:19:43;3.97;;;2.10;;
65202;SDS011;51788;45.124;38.966;2023-07-20T14:22:09;5.35;;;1.95;;
65202;SDS011;51788;45.124;38.966;2023-07-20T14:24:34;3.95;;;1.80;;
65202;SDS011;51788;45.124;38.966;2023-07-20T14:27:00;2.40;;;2.00;;
65202;SDS011;51788;45.124;38.966;2023-07-20T14:29:26;5.38;;;2.17;;
65202;SDS011;51788;45.124;38.966;2023-07-20T14:31:52;2.45;;;2.28;;
65202;SDS011;51788;45.124;38.966;2023-07-20T14:34:19;4.60;;;2.60;;
65202;SDS011;51788;45.124;38.966;2023-07-20T14:36:45;6.78;;;2.25;;
65202;SDS011;51788;45.124;38.966;2023-07-20T14:39:11;2.72;;;1.80;;
65202;SDS011;51788;45.124;38.966;2023-07-20T14:41:37;3.10;;;2.00;;
65202;SDS011;51788;45.124;38.966;2023-07-20T14:44:03;2.95;;;2.13;;
65202;SDS011;51788;45.124;38.966;2023-07-20T14:46:29;5.25;;;2.40;;